createdAt,value
2019-05-12T00:01:28.588Z,82.85
2019-05-12T00:03:58.087Z,83.09
2019-05-12T00:06:28.440Z,83.35
2019-05-12T00:08:57.994Z,83.73
2019-05-12T00:11:28.778Z,84.43
2019-05-12T00:13:58.567Z,85.37
2019-05-12T00:16:28.317Z,85.63
2019-05-12T00:18:58.578Z,86.01
2019-05-12T00:21:28.319Z,86.24
2019-05-12T00:24:12.166Z,86.08
2019-05-12T00:26:42.476Z,86.01
2019-05-12T00:29:11.067Z,85.80
2019-05-12T00:31:39.757Z,85.70
2019-05-12T00:34:08.381Z,85.55
2019-05-12T00:36:37.987Z,85.73
2019-05-12T00:39:08.586Z,85.18
2019-05-12T00:41:38.905Z,85.20
2019-05-12T00:44:08.786Z,85.11
2019-05-12T00:46:38.540Z,85.53
2019-05-12T00:49:08.068Z,85.72
2019-05-12T00:51:38.341Z,85.20
2019-05-12T00:54:09.135Z,85.05
2019-05-12T00:56:39.189Z,85.31
2019-05-12T00:59:08.431Z,85.23
2019-05-12T01:01:38.099Z,85.25
2019-05-12T01:04:08.862Z,85.36
2019-05-12T01:06:38.656Z,85.38
2019-05-12T01:09:08.727Z,85.61
2019-05-12T01:11:37.949Z,85.53
2019-05-12T01:14:08.511Z,85.70
2019-05-12T01:16:38.532Z,85.73
2019-05-12T01:19:08.087Z,85.79
2019-05-12T01:21:37.649Z,85.84
2019-05-12T01:24:08.857Z,85.98
2019-05-12T01:26:38.792Z,86.15
2019-05-12T01:29:08.420Z,86.39
2019-05-12T01:31:38.915Z,86.50
2019-05-12T01:34:08.092Z,86.88
2019-05-12T01:36:38.091Z,87.09
2019-05-12T01:39:08.511Z,87.55
2019-05-12T01:41:39.027Z,87.73
2019-05-12T01:44:08.874Z,87.72
2019-05-12T01:46:38.303Z,87.73
2019-05-12T01:49:08.327Z,87.77
2019-05-12T01:51:38.443Z,87.77
2019-05-12T01:54:13.923Z,87.63
2019-05-12T01:56:38.274Z,87.66
2019-05-12T01:59:08.125Z,87.66
2019-05-12T02:01:38.904Z,87.72
2019-05-12T02:04:07.757Z,88.32
2019-05-12T02:06:38.672Z,89.00
2019-05-12T02:09:08.461Z,89.19
2019-05-12T02:11:38.002Z,89.32
2019-05-12T02:14:09.028Z,89.29
2019-05-12T02:16:38.647Z,89.26
2019-05-12T02:19:09.094Z,89.29
2019-05-12T02:21:38.264Z,89.37
2019-05-12T02:24:07.765Z,89.06
2019-05-12T02:26:38.280Z,88.91
2019-05-12T02:29:07.917Z,88.68
2019-05-12T02:31:39.816Z,88.41
2019-05-12T02:34:07.101Z,88.35
2019-05-12T02:36:35.667Z,88.21
2019-05-12T02:39:07.108Z,88.10
2019-05-12T02:41:35.679Z,88.17
2019-05-12T02:44:05.240Z,87.94
2019-05-12T02:46:34.999Z,87.87
2019-05-12T02:49:05.020Z,87.77
2019-05-12T02:51:35.598Z,87.69
2019-05-12T02:54:05.716Z,87.79
2019-05-12T02:56:35.770Z,87.60
2019-05-12T02:59:05.561Z,87.42
2019-05-12T03:01:35.886Z,87.72
2019-05-12T03:04:05.940Z,87.81
2019-05-12T03:06:36.473Z,87.75
2019-05-12T03:09:07.559Z,87.71
2019-05-12T03:11:37.571Z,87.77
2019-05-12T03:14:06.203Z,87.91
2019-05-12T03:16:35.322Z,87.96
2019-05-12T03:19:05.098Z,88.24
2019-05-12T03:21:35.158Z,88.53
2019-05-12T03:24:06.314Z,88.60
2019-05-12T03:26:35.409Z,88.58
2019-05-12T03:29:05.623Z,88.50
2019-05-12T03:31:39.650Z,88.62
2019-05-12T03:34:09.724Z,88.54
2019-05-12T03:36:42.125Z,88.79
2019-05-12T03:39:08.565Z,88.57
2019-05-12T03:41:37.125Z,88.76
2019-05-12T03:44:05.721Z,88.84
2019-05-12T03:46:35.271Z,88.89
2019-05-12T03:49:05.233Z,88.92
2019-05-12T03:51:35.126Z,88.68
2019-05-12T03:54:04.998Z,89.07
2019-05-12T03:56:34.673Z,88.91
2019-05-12T03:59:05.056Z,88.89
2019-05-12T04:01:36.363Z,88.94
2019-05-12T04:04:05.239Z,89.09
2019-05-12T04:06:34.724Z,89.09
2019-05-12T04:09:06.115Z,89.24
2019-05-12T04:11:35.810Z,89.11
2019-05-12T04:14:05.681Z,89.03
2019-05-12T04:16:36.425Z,88.93
2019-05-12T04:19:05.524Z,88.97
2019-05-12T04:21:35.344Z,88.76
2019-05-12T04:24:05.456Z,88.75
2019-05-12T04:26:36.501Z,88.58
2019-05-12T04:29:05.321Z,88.49
2019-05-12T04:31:35.329Z,88.35
2019-05-12T04:34:05.144Z,88.19
2019-05-12T04:36:35.554Z,88.22
2019-05-12T04:39:05.924Z,88.23
2019-05-12T04:41:35.363Z,88.22
2019-05-12T04:44:05.808Z,88.15
2019-05-12T04:46:34.911Z,88.10
2019-05-12T04:49:05.330Z,87.77
2019-05-12T04:51:34.976Z,87.76
2019-05-12T04:54:05.768Z,87.73
2019-05-12T04:56:35.866Z,87.28
2019-05-12T04:59:05.151Z,87.10
2019-05-12T05:01:34.823Z,87.21
2019-05-12T05:04:05.360Z,87.32
2019-05-12T05:06:34.444Z,87.15
2019-05-12T05:09:05.135Z,87.05
2019-05-12T05:11:34.504Z,86.77
2019-05-12T05:14:04.249Z,86.42
2019-05-12T05:16:34.582Z,85.98
2019-05-12T05:19:03.890Z,86.09
2019-05-12T05:21:34.462Z,85.96
2019-05-12T05:24:03.824Z,85.66
2019-05-12T05:26:36.636Z,85.72
2019-05-12T05:29:04.313Z,85.65
2019-05-12T05:31:33.820Z,85.61
2019-05-12T05:34:04.823Z,85.66
2019-05-12T05:36:34.545Z,85.29
2019-05-12T05:39:06.051Z,84.38
2019-05-12T05:41:34.715Z,83.15
2019-05-12T05:44:03.333Z,81.29
2019-05-12T05:46:33.664Z,80.71
2019-05-12T05:49:04.193Z,80.16
2019-05-12T05:51:33.437Z,79.20
2019-05-12T05:54:03.979Z,79.26
2019-05-12T05:56:42.436Z,77.98
2019-05-12T05:59:04.582Z,76.61
2019-05-12T06:01:34.765Z,75.50
2019-05-12T06:04:08.334Z,75.22
2019-05-12T06:06:34.295Z,75.53
2019-05-12T06:09:04.572Z,75.81
2019-05-12T06:11:34.548Z,75.66
2019-05-12T06:14:11.403Z,75.93
2019-05-12T06:16:34.165Z,76.52
2019-05-12T06:19:03.473Z,76.11
2019-05-12T06:21:36.332Z,76.38
2019-05-12T06:24:03.488Z,75.89
2019-05-12T06:26:35.412Z,75.25
2019-05-12T06:29:04.510Z,75.29
2019-05-12T06:31:33.596Z,76.24
2019-05-12T06:34:06.421Z,76.28
2019-05-12T06:36:33.936Z,75.90
2019-05-12T06:39:04.469Z,76.49
2019-05-12T06:41:33.633Z,76.02
2019-05-12T06:44:03.692Z,75.33
2019-05-12T06:46:34.295Z,74.98
2019-05-12T06:49:11.215Z,73.39
2019-05-12T06:51:33.980Z,72.05
2019-05-12T06:54:07.255Z,69.05
2019-05-12T06:56:34.197Z,66.75
2019-05-12T06:59:09.919Z,66.49
2019-05-12T07:01:33.579Z,64.12
2019-05-12T07:04:06.460Z,63.21
2019-05-12T07:06:33.949Z,60.46
2019-05-12T07:09:09.545Z,59.92
2019-05-12T07:11:44.248Z,59.96
2019-05-12T07:14:12.816Z,59.93
2019-05-12T07:16:35.223Z,60.16
2019-05-12T07:19:07.686Z,59.51
2019-05-12T07:21:34.026Z,59.28
2019-05-12T07:24:06.726Z,59.35
2019-05-12T07:26:33.916Z,58.31
2019-05-12T07:29:04.470Z,58.26
2019-05-12T07:31:33.711Z,57.12
2019-05-12T07:34:07.121Z,54.66
2019-05-12T07:36:34.447Z,53.68
2019-05-12T07:39:08.400Z,52.64
2019-05-12T07:41:42.476Z,51.87
2019-05-12T07:44:10.074Z,51.86
2019-05-12T07:46:39.538Z,49.92
2019-05-12T07:49:09.032Z,49.29
2019-05-12T07:51:40.532Z,48.49
2019-05-12T07:54:07.863Z,48.10
2019-05-12T07:56:36.387Z,47.93
2019-05-12T07:59:04.959Z,47.17
2019-05-12T08:01:38.141Z,47.42
2019-05-12T08:04:04.523Z,46.79
2019-05-12T08:06:41.457Z,46.50
2019-05-12T08:09:05.728Z,46.34
2019-05-12T08:11:38.676Z,47.09
2019-05-12T08:14:04.624Z,46.92
2019-05-12T08:16:36.780Z,47.31
2019-05-12T08:19:04.111Z,49.23
2019-05-12T08:21:34.757Z,49.22
2019-05-12T08:24:03.764Z,48.37
2019-05-12T08:26:33.450Z,47.32
2019-05-12T08:29:04.213Z,47.12
2019-05-12T08:31:40.087Z,45.48
2019-05-12T08:34:04.265Z,43.59
2019-05-12T08:36:33.474Z,43.41
2019-05-12T08:39:05.945Z,43.50
2019-05-12T08:41:34.147Z,43.24
2019-05-12T08:44:04.580Z,41.00
2019-05-12T08:46:34.399Z,40.32
2019-05-12T08:49:05.428Z,41.11
2019-05-12T08:51:34.014Z,41.59
2019-05-12T08:54:07.442Z,41.83
2019-05-12T08:56:33.323Z,42.43
2019-05-12T08:59:04.122Z,43.53
2019-05-12T09:01:34.355Z,44.34
2019-05-12T09:04:06.701Z,44.29
2019-05-12T09:06:34.307Z,43.56
2019-05-12T09:09:04.812Z,42.09
2019-05-12T09:11:33.676Z,41.53
2019-05-12T09:14:05.205Z,40.82
2019-05-12T09:16:33.535Z,39.30
2019-05-12T09:19:04.665Z,36.92
2019-05-12T09:21:36.529Z,37.42
2019-05-12T09:24:04.213Z,37.66
2019-05-12T09:26:34.343Z,36.62
2019-05-12T09:29:03.564Z,36.68
2019-05-12T09:31:33.614Z,36.59
2019-05-12T09:34:05.829Z,36.02
2019-05-12T09:36:33.817Z,36.31
2019-05-12T09:39:03.824Z,35.83
2019-05-12T09:41:41.811Z,36.12
2019-05-12T09:44:04.643Z,35.89
2019-05-12T09:46:37.298Z,34.58
2019-05-12T09:49:04.199Z,35.10
2019-05-12T09:51:41.005Z,35.63
2019-05-12T09:54:05.221Z,35.43
2019-05-12T09:56:34.195Z,34.71
2019-05-12T09:59:17.411Z,34.91
2019-05-12T10:01:37.415Z,36.40
2019-05-12T10:04:03.764Z,34.89
2019-05-12T10:06:33.899Z,35.18
2019-05-12T10:09:08.737Z,35.01
2019-05-12T10:11:34.743Z,36.05
2019-05-12T10:14:06.394Z,36.88
2019-05-12T10:16:33.747Z,37.67
2019-05-12T10:19:04.025Z,37.13
2019-05-12T10:21:32.690Z,38.26
2019-05-12T10:24:02.783Z,38.60
2019-05-12T10:26:31.626Z,40.07
2019-05-12T10:29:14.170Z,41.77
2019-05-12T10:31:35.775Z,40.68
2019-05-12T10:34:19.062Z,39.90
2019-05-12T10:36:49.168Z,38.25
2019-05-12T10:39:18.011Z,39.40
2019-05-12T10:41:47.651Z,39.65
2019-05-12T10:44:16.475Z,37.81
2019-05-12T10:46:46.692Z,39.06
2019-05-12T10:49:15.262Z,37.79
2019-05-12T10:51:47.425Z,38.33
2019-05-12T10:54:15.750Z,38.26
2019-05-12T10:56:44.512Z,37.81
2019-05-12T10:59:13.387Z,38.08
2019-05-12T11:01:47.240Z,37.97
2019-05-12T11:04:14.262Z,39.03
2019-05-12T11:06:44.683Z,39.15
2019-05-12T11:09:13.935Z,39.40
2019-05-12T11:11:46.783Z,39.46
2019-05-12T11:14:14.245Z,39.35
2019-05-12T11:16:44.612Z,39.04
2019-05-12T11:19:13.808Z,38.41
2019-05-12T11:21:44.340Z,36.54
2019-05-12T11:24:13.822Z,36.58
2019-05-12T11:26:43.297Z,36.97
2019-05-12T11:29:14.028Z,37.64
2019-05-12T11:31:44.094Z,38.10
2019-05-12T11:34:12.528Z,38.63
2019-05-12T11:36:43.660Z,38.73
2019-05-12T11:39:11.566Z,38.45
2019-05-12T11:41:40.321Z,38.34
2019-05-12T11:44:09.156Z,38.73
2019-05-12T11:46:37.733Z,37.58
2019-05-12T11:49:09.446Z,37.40
2019-05-12T11:51:36.731Z,36.88
2019-05-12T11:54:08.929Z,37.48
2019-05-12T11:56:40.430Z,37.62
2019-05-12T11:59:06.152Z,37.58
2019-05-12T12:01:39.673Z,37.49
2019-05-12T12:04:05.031Z,38.53
2019-05-12T12:06:33.667Z,39.28
2019-05-12T12:09:03.949Z,39.48
2019-05-12T12:11:34.228Z,38.39
2019-05-12T12:14:06.375Z,39.16
2019-05-12T12:16:34.088Z,37.67
2019-05-12T12:19:05.679Z,36.39
2019-05-12T12:21:35.087Z,38.17
2019-05-12T12:24:03.939Z,36.44
2019-05-12T12:26:34.978Z,36.52
2019-05-12T12:29:03.432Z,35.62
2019-05-12T12:31:37.330Z,35.40
2019-05-12T12:34:04.011Z,34.71
2019-05-12T12:36:34.213Z,37.00
2019-05-12T12:39:04.168Z,35.42
2019-05-12T12:41:34.170Z,35.91
2019-05-12T12:44:04.572Z,35.25
2019-05-12T12:46:33.794Z,35.88
2019-05-12T12:49:06.504Z,35.81
2019-05-12T12:51:34.252Z,35.78
2019-05-12T12:54:03.364Z,35.81
2019-05-12T12:56:33.982Z,35.65
2019-05-12T12:59:10.171Z,34.60
2019-05-12T13:01:35.605Z,35.84
2019-05-12T13:04:05.169Z,36.12
2019-05-12T13:06:34.594Z,34.78
2019-05-12T13:09:09.844Z,34.91
2019-05-12T13:11:35.673Z,35.01
2019-05-12T13:14:04.753Z,35.81
2019-05-12T13:16:34.353Z,34.30
2019-05-12T13:19:11.701Z,34.06
2019-05-12T13:21:33.675Z,34.13
2019-05-12T13:24:03.610Z,34.30
2019-05-12T13:26:32.315Z,35.78
2019-05-12T13:29:01.069Z,35.47
2019-05-12T13:31:29.640Z,36.54
2019-05-12T13:33:58.314Z,36.43
2019-05-12T13:36:29.496Z,37.73
2019-05-12T13:38:57.118Z,38.44
2019-05-12T13:41:25.821Z,39.14
2019-05-12T13:43:59.096Z,39.41
2019-05-12T13:46:24.826Z,39.80
2019-05-12T13:48:57.632Z,40.39
2019-05-12T13:51:24.237Z,40.07
2019-05-12T13:53:52.865Z,40.35
2019-05-12T13:56:25.769Z,41.37
2019-05-12T13:58:54.060Z,40.92
2019-05-12T14:01:24.707Z,40.34
2019-05-12T14:03:53.602Z,41.45
2019-05-12T14:06:31.527Z,40.27
2019-05-12T14:08:53.824Z,38.93
2019-05-12T14:11:23.854Z,38.62
2019-05-12T14:13:52.723Z,39.09
2019-05-12T14:16:23.668Z,38.79
2019-05-12T14:18:56.997Z,38.61
2019-05-12T14:21:24.321Z,38.93
2019-05-12T14:23:52.656Z,39.87
2019-05-12T14:26:21.283Z,41.41
2019-05-12T14:28:49.875Z,41.34
2019-05-12T14:31:29.445Z,42.01
2019-05-12T14:33:48.798Z,43.09
2019-05-12T14:36:22.012Z,43.63
2019-05-12T14:38:47.610Z,44.63
2019-05-12T14:41:16.184Z,45.35
2019-05-12T14:43:47.674Z,46.24
2019-05-12T14:46:15.269Z,46.66
2019-05-12T14:48:46.365Z,47.82
2019-05-12T14:51:14.255Z,47.80
2019-05-12T14:53:46.077Z,48.64
2019-05-12T14:56:14.065Z,48.35
2019-05-12T14:58:44.264Z,48.58
2019-05-12T15:01:14.276Z,49.06
2019-05-12T15:03:47.763Z,49.62
2019-05-12T15:06:14.167Z,48.86
2019-05-12T15:08:43.629Z,49.53
2019-05-12T15:11:13.252Z,48.55
2019-05-12T15:13:43.629Z,47.98
2019-05-12T15:16:12.213Z,48.20
2019-05-12T15:18:48.304Z,48.63
2019-05-12T15:21:11.194Z,48.85
2019-05-12T15:23:39.799Z,48.82
2019-05-12T15:26:09.660Z,49.11
2019-05-12T15:28:38.967Z,49.86
2019-05-12T15:31:07.803Z,49.58
2019-05-12T15:33:36.488Z,49.81
2019-05-12T15:36:05.055Z,50.64
2019-05-12T15:38:34.172Z,50.60
2019-05-12T15:41:04.211Z,50.14
2019-05-12T15:43:35.842Z,49.93
2019-05-12T15:46:04.258Z,50.14
2019-05-12T15:48:34.255Z,50.25
2019-05-12T15:51:06.938Z,50.27
2019-05-12T15:53:35.840Z,49.94
2019-05-12T15:56:05.892Z,49.79
2019-05-12T15:58:34.466Z,50.70
2019-05-12T16:01:04.501Z,50.89
2019-05-12T16:03:34.318Z,50.58
2019-05-12T16:06:10.016Z,50.29
2019-05-12T16:08:33.787Z,50.41
2019-05-12T16:11:05.044Z,50.25
2019-05-12T16:13:33.776Z,50.62
2019-05-12T16:16:05.848Z,49.82
2019-05-12T16:18:34.477Z,49.26
2019-05-12T16:21:05.168Z,49.30
2019-05-12T16:23:34.132Z,48.53
2019-05-12T16:26:10.320Z,47.91
2019-05-12T16:28:33.703Z,46.83
2019-05-12T16:31:05.186Z,47.50
2019-05-12T16:33:33.406Z,46.76
2019-05-12T16:36:06.642Z,46.60
2019-05-12T16:38:32.372Z,46.46
2019-05-12T16:41:03.553Z,46.95
2019-05-12T16:43:35.145Z,47.42
2019-05-12T16:46:04.233Z,47.64
2019-05-12T16:48:34.837Z,48.01
2019-05-12T16:51:03.367Z,48.38
2019-05-12T16:53:34.069Z,48.41
2019-05-12T16:56:04.190Z,48.73
2019-05-12T16:58:35.496Z,48.94
2019-05-12T17:01:03.931Z,49.64
2019-05-12T17:03:34.144Z,48.88
2019-05-12T17:06:03.650Z,48.96
2019-05-12T17:08:34.352Z,48.36
2019-05-12T17:11:22.985Z,49.06
2019-05-12T17:13:34.148Z,49.38
2019-05-12T17:16:04.260Z,49.66
2019-05-12T17:18:33.931Z,49.79
2019-05-12T17:21:04.199Z,50.10
2019-05-12T17:23:33.146Z,50.74
2019-05-12T17:26:03.821Z,51.05
2019-05-12T17:28:34.348Z,50.54
2019-05-12T17:31:03.810Z,50.27
2019-05-12T17:33:33.939Z,50.83
2019-05-12T17:36:11.456Z,50.84
2019-05-12T17:38:34.562Z,50.66
2019-05-12T17:41:03.886Z,50.52
2019-05-12T17:43:33.901Z,50.81
2019-05-12T17:46:04.477Z,50.51
2019-05-12T17:48:37.310Z,51.47
2019-05-12T17:51:03.740Z,51.34
2019-05-12T17:53:36.189Z,51.44
2019-05-12T17:56:04.791Z,51.55
2019-05-12T17:58:36.632Z,51.79
2019-05-12T18:01:04.027Z,51.82
2019-05-12T18:03:34.246Z,52.11
2019-05-12T18:06:04.062Z,52.10
2019-05-12T18:08:35.861Z,52.43
2019-05-12T18:11:03.879Z,51.89
2019-05-12T18:13:34.462Z,52.03
2019-05-12T18:16:05.994Z,52.41
2019-05-12T18:18:37.935Z,52.18
2019-05-12T18:21:05.930Z,52.24
2019-05-12T18:23:35.093Z,51.88
2019-05-12T18:26:11.588Z,51.87
2019-05-12T18:29:14.515Z,52.50
2019-05-12T18:31:43.650Z,52.53
2019-05-12T18:34:13.978Z,52.40
2019-05-12T18:36:49.141Z,53.13
2019-05-12T18:39:16.568Z,52.87
2019-05-12T18:41:46.485Z,52.97
2019-05-12T18:44:28.996Z,52.76
2019-05-12T18:46:49.122Z,52.48
2019-05-12T18:53:57.752Z,52.42
2019-05-12T18:56:26.649Z,52.53
2019-05-12T18:59:05.145Z,52.77
2019-05-12T19:01:30.678Z,52.36
2019-05-12T19:04:03.786Z,52.45
2019-05-12T19:06:33.949Z,52.80
2019-05-12T19:09:04.521Z,52.97
2019-05-12T19:11:41.558Z,53.75
2019-05-12T19:14:10.378Z,53.53
2019-05-12T19:16:40.282Z,53.68
2019-05-12T19:19:18.308Z,53.92
2019-05-12T19:21:43.824Z,54.64
2019-05-12T19:24:17.508Z,54.88
2019-05-12T19:26:46.623Z,55.07
2019-05-12T19:29:16.080Z,55.00
2019-05-12T19:31:52.581Z,55.61
2019-05-12T19:34:22.592Z,55.84
2019-05-12T19:36:49.601Z,56.12
2019-05-12T19:39:19.551Z,56.76
2019-05-12T19:41:49.777Z,57.26
2019-05-12T19:44:26.375Z,57.58
2019-05-12T19:46:53.914Z,57.71
2019-05-12T19:49:26.132Z,57.83
2019-05-12T19:51:56.919Z,57.98
2019-05-12T19:55:21.185Z,58.13
2019-05-12T19:57:51.406Z,58.32
2019-05-12T20:00:21.472Z,58.41
2019-05-12T20:02:50.351Z,58.42
2019-05-12T20:05:20.817Z,58.48
2019-05-12T20:07:50.537Z,58.55
2019-05-12T20:10:20.884Z,58.89
2019-05-12T20:12:54.891Z,58.94
2019-05-12T20:15:24.409Z,59.00
2019-05-12T20:17:55.333Z,59.39
2019-05-12T20:20:35.807Z,59.43
2019-05-12T20:22:58.327Z,59.66
2019-05-12T20:25:27.904Z,59.77
2019-05-12T20:28:05.793Z,59.96
2019-05-12T20:30:29.494Z,60.18
2019-05-12T20:32:59.314Z,60.22
2019-05-12T20:35:29.811Z,60.57
2019-05-12T20:38:00.005Z,60.55
2019-05-12T20:40:32.102Z,60.74
2019-05-12T20:43:07.703Z,61.02
2019-05-12T20:45:33.115Z,61.34
2019-05-12T20:48:03.897Z,61.56
2019-05-12T20:50:38.147Z,61.67
2019-05-12T20:53:03.888Z,61.92
2019-05-12T20:55:39.451Z,62.08
2019-05-12T20:58:04.443Z,61.95
2019-05-12T21:00:33.736Z,61.92
2019-05-12T21:03:04.407Z,62.04
2019-05-12T21:05:34.298Z,62.10
2019-05-12T21:08:10.984Z,62.32
2019-05-12T21:10:34.070Z,62.53
2019-05-12T21:13:02.877Z,62.58
2019-05-12T21:15:40.725Z,62.54
2019-05-12T21:18:06.844Z,62.55
2019-05-12T21:20:33.715Z,62.69
2019-05-12T21:23:02.373Z,62.77
2019-05-12T21:25:30.885Z,62.92
2019-05-12T21:28:02.598Z,63.17
2019-05-12T21:30:29.930Z,63.28
2019-05-12T21:33:01.265Z,63.49
2019-05-12T21:35:31.781Z,63.60
2019-05-12T21:37:59.379Z,63.88
2019-05-12T21:40:31.932Z,64.02
2019-05-12T21:42:58.307Z,64.35
2019-05-12T21:45:30.837Z,64.37
2019-05-12T21:47:57.131Z,64.54
2019-05-12T21:50:32.409Z,64.49
2019-05-12T21:52:59.305Z,64.77
2019-05-12T21:55:26.793Z,65.12
2019-05-12T21:57:55.443Z,65.38
2019-05-12T22:00:31.439Z,65.52
2019-05-12T22:03:02.659Z,66.03
2019-05-12T22:05:48.170Z,66.19
2019-05-12T22:08:03.178Z,66.38
2019-05-12T22:10:34.470Z,66.61
2019-05-12T22:13:09.037Z,66.83
2019-05-12T22:15:33.796Z,66.93
2019-05-12T22:18:04.649Z,67.26
2019-05-12T22:20:34.525Z,67.50
2019-05-12T22:23:09.558Z,67.72
2019-05-12T22:25:34.493Z,67.94
2019-05-12T22:28:05.402Z,68.22
2019-05-12T22:30:34.969Z,68.51
2019-05-12T22:33:08.289Z,68.65
2019-05-12T22:35:34.290Z,68.85
2019-05-12T22:38:09.163Z,68.94
2019-05-12T22:40:33.242Z,69.28
2019-05-12T22:43:04.488Z,69.61
2019-05-12T22:45:37.768Z,70.18
2019-05-12T22:48:04.146Z,70.01
2019-05-12T22:50:35.203Z,70.43
2019-05-12T22:53:04.479Z,70.61
2019-05-12T22:55:36.037Z,70.85
2019-05-12T22:58:04.061Z,70.88
2019-05-12T23:00:34.162Z,71.37
2019-05-12T23:03:07.218Z,71.59
2019-05-12T23:05:33.571Z,71.90
2019-05-12T23:08:05.967Z,72.09
2019-05-12T23:10:32.428Z,72.33
2019-05-12T23:13:02.026Z,72.74
2019-05-12T23:15:33.404Z,72.84
2019-05-12T23:18:04.052Z,73.20
2019-05-12T23:20:33.405Z,73.21
2019-05-12T23:23:03.873Z,73.86
2019-05-12T23:25:33.627Z,73.90
2019-05-12T23:28:08.517Z,74.06
2019-05-12T23:30:32.685Z,73.99
2019-05-12T23:33:03.545Z,74.40
2019-05-12T23:35:34.904Z,74.18
2019-05-12T23:38:04.183Z,74.33
2019-05-12T23:40:34.247Z,74.68
2019-05-12T23:43:04.056Z,75.00
2019-05-12T23:45:33.881Z,75.08
2019-05-12T23:48:03.733Z,75.39
2019-05-12T23:50:32.790Z,75.68
2019-05-12T23:53:03.473Z,75.63
2019-05-12T23:55:34.686Z,75.79
2019-05-12T23:58:04.321Z,75.86
